sensor_id;sensor_type;location;lat;lon;timestamp;temperature;humidity
26099;DHT22;13860;52.370;6.764;2023-01-08T00:02:26;11.20;84.50
26099;DHT22;13860;52.370;6.764;2023-01-08T00:05:28;11.20;84.60
26099;DHT22;13860;52.370;6.764;2023-01-08T00:08:30;11.20;84.50
26099;DHT22;13860;52.370;6.764;2023-01-08T00:11:32;11.20;84.50
26099;DHT22;13860;52.370;6.764;2023-01-08T00:14:33;11.20;84.60
26099;DHT22;13860;52.370;6.764;2023-01-08T00:17:34;11.20;84.60
26099;DHT22;13860;52.370;6.764;2023-01-08T00:20:40;11.20;84.60
26099;DHT22;13860;52.370;6.764;2023-01-08T00:23:41;11.20;84.60
26099;DHT22;13860;52.370;6.764;2023-01-08T00:26:43;11.20;84.60
26099;DHT22;13860;52.370;6.764;2023-01-08T00:29:44;11.20;84.60
26099;DHT22;13860;52.370;6.764;2023-01-08T00:32:46;11.20;84.60
26099;DHT22;13860;52.370;6.764;2023-01-08T00:35:47;11.20;84.60
26099;DHT22;13860;52.370;6.764;2023-01-08T00:38:48;11.20;84.60
26099;DHT22;13860;52.370;6.764;2023-01-08T00:41:50;11.20;84.60
26099;DHT22;13860;52.370;6.764;2023-01-08T00:44:51;11.20;84.60
26099;DHT22;13860;52.370;6.764;2023-01-08T00:47:52;11.20;84.60
26099;DHT22;13860;52.370;6.764;2023-01-08T00:50:54;11.20;84.60
26099;DHT22;13860;52.370;6.764;2023-01-08T00:53:55;11.20;84.60
26099;DHT22;13860;52.370;6.764;2023-01-08T00:56:57;11.20;84.60
26099;DHT22;13860;52.370;6.764;2023-01-08T00:59:58;11.20;84.60
26099;DHT22;13860;52.370;6.764;2023-01-08T01:02:59;11.20;84.70
26099;DHT22;13860;52.370;6.764;2023-01-08T01:06:03;11.20;84.70
26099;DHT22;13860;52.370;6.764;2023-01-08T01:09:04;11.20;84.70
26099;DHT22;13860;52.370;6.764;2023-01-08T01:12:06;11.20;84.70
26099;DHT22;13860;52.370;6.764;2023-01-08T01:15:10;11.20;84.70
26099;DHT22;13860;52.370;6.764;2023-01-08T01:18:12;11.20;84.70
26099;DHT22;13860;52.370;6.764;2023-01-08T01:21:25;11.20;84.70
26099;DHT22;13860;52.370;6.764;2023-01-08T01:24:27;11.20;84.70
26099;DHT22;13860;52.370;6.764;2023-01-08T01:27:28;11.20;84.70
26099;DHT22;13860;52.370;6.764;2023-01-08T01:30:30;11.20;84.70
26099;DHT22;13860;52.370;6.764;2023-01-08T01:33:31;11.20;84.80
26099;DHT22;13860;52.370;6.764;2023-01-08T01:36:33;11.20;84.80
26099;DHT22;13860;52.370;6.764;2023-01-08T01:39:34;11.20;84.80
26099;DHT22;13860;52.370;6.764;2023-01-08T01:42:35;11.20;84.90
26099;DHT22;13860;52.370;6.764;2023-01-08T01:45:40;11.20;84.80
26099;DHT22;13860;52.370;6.764;2023-01-08T01:48:42;11.20;84.90
26099;DHT22;13860;52.370;6.764;2023-01-08T01:51:47;11.20;84.90
26099;DHT22;13860;52.370;6.764;2023-01-08T01:54:50;11.10;84.80
26099;DHT22;13860;52.370;6.764;2023-01-08T01:58:16;11.20;84.90
26099;DHT22;13860;52.370;6.764;2023-01-08T02:01:19;11.10;84.80
26099;DHT22;13860;52.370;6.764;2023-01-08T02:04:21;11.10;84.80
26099;DHT22;13860;52.370;6.764;2023-01-08T02:10:58;11.10;85.50
26099;DHT22;13860;52.370;6.764;2023-01-08T02:14:16;11.10;84.90
26099;DHT22;13860;52.370;6.764;2023-01-08T02:17:35;11.10;84.90
26099;DHT22;13860;52.370;6.764;2023-01-08T02:20:46;11.00;84.90
26099;DHT22;13860;52.370;6.764;2023-01-08T02:24:22;11.10;85.10
26099;DHT22;13860;52.370;6.764;2023-01-08T02:27:28;11.10;85.00
26099;DHT22;13860;52.370;6.764;2023-01-08T02:30:30;11.00;85.00
26099;DHT22;13860;52.370;6.764;2023-01-08T02:33:33;11.10;85.10
26099;DHT22;13860;52.370;6.764;2023-01-08T02:36:40;11.00;85.00
26099;DHT22;13860;52.370;6.764;2023-01-08T02:43:17;11.00;85.00
26099;DHT22;13860;52.370;6.764;2023-01-08T02:46:25;11.10;85.10
26099;DHT22;13860;52.370;6.764;2023-01-08T02:49:31;11.10;85.10
26099;DHT22;13860;52.370;6.764;2023-01-08T02:52:43;11.10;85.10
26099;DHT22;13860;52.370;6.764;2023-01-08T02:55:53;11.10;85.10
26099;DHT22;13860;52.370;6.764;2023-01-08T02:58:57;11.10;85.00
26099;DHT22;13860;52.370;6.764;2023-01-08T03:02:01;11.00;84.90
26099;DHT22;13860;52.370;6.764;2023-01-08T03:05:12;11.00;84.90
26099;DHT22;13860;52.370;6.764;2023-01-08T03:08:15;11.10;85.00
26099;DHT22;13860;52.370;6.764;2023-01-08T03:11:20;11.10;85.00
26099;DHT22;13860;52.370;6.764;2023-01-08T03:14:27;11.00;84.90
26099;DHT22;13860;52.370;6.764;2023-01-08T03:17:32;11.00;84.90
26099;DHT22;13860;52.370;6.764;2023-01-08T03:20:37;11.10;85.10
26099;DHT22;13860;52.370;6.764;2023-01-08T03:23:39;11.00;84.90
26099;DHT22;13860;52.370;6.764;2023-01-08T03:26:44;11.00;85.00
26099;DHT22;13860;52.370;6.764;2023-01-08T03:29:49;11.10;85.20
26099;DHT22;13860;52.370;6.764;2023-01-08T03:32:53;11.00;85.10
26099;DHT22;13860;52.370;6.764;2023-01-08T03:35:56;11.00;85.10
26099;DHT22;13860;52.370;6.764;2023-01-08T03:39:07;11.00;85.20
26099;DHT22;13860;52.370;6.764;2023-01-08T03:42:12;11.00;85.10
26099;DHT22;13860;52.370;6.764;2023-01-08T03:45:15;11.10;85.20
26099;DHT22;13860;52.370;6.764;2023-01-08T03:48:19;11.00;85.00
26099;DHT22;13860;52.370;6.764;2023-01-08T03:51:21;11.00;84.90
26099;DHT22;13860;52.370;6.764;2023-01-08T03:54:26;11.00;85.00
26099;DHT22;13860;52.370;6.764;2023-01-08T03:57:30;11.00;85.00
26099;DHT22;13860;52.370;6.764;2023-01-08T04:00:31;11.00;84.90
26099;DHT22;13860;52.370;6.764;2023-01-08T04:03:33;11.00;84.90
26099;DHT22;13860;52.370;6.764;2023-01-08T04:06:34;11.00;85.00
26099;DHT22;13860;52.370;6.764;2023-01-08T04:09:35;11.00;85.00
26099;DHT22;13860;52.370;6.764;2023-01-08T04:12:37;11.00;85.50
26099;DHT22;13860;52.370;6.764;2023-01-08T04:15:38;11.00;85.10
26099;DHT22;13860;52.370;6.764;2023-01-08T04:18:40;11.00;85.10
26099;DHT22;13860;52.370;6.764;2023-01-08T04:21:41;11.00;85.10
26099;DHT22;13860;52.370;6.764;2023-01-08T04:24:42;11.00;85.00
26099;DHT22;13860;52.370;6.764;2023-01-08T04:27:44;11.00;85.10
26099;DHT22;13860;52.370;6.764;2023-01-08T04:30:45;11.00;85.10
26099;DHT22;13860;52.370;6.764;2023-01-08T04:33:47;10.90;85.00
26099;DHT22;13860;52.370;6.764;2023-01-08T04:36:48;10.90;84.90
26099;DHT22;13860;52.370;6.764;2023-01-08T04:39:49;10.80;84.90
26099;DHT22;13860;52.370;6.764;2023-01-08T04:42:51;10.80;84.90
26099;DHT22;13860;52.370;6.764;2023-01-08T04:45:56;10.80;84.80
26099;DHT22;13860;52.370;6.764;2023-01-08T04:48:58;10.70;84.80
26099;DHT22;13860;52.370;6.764;2023-01-08T04:52:00;10.70;84.80
26099;DHT22;13860;52.370;6.764;2023-01-08T04:55:02;10.70;84.80
26099;DHT22;13860;52.370;6.764;2023-01-08T04:58:03;10.60;84.80
26099;DHT22;13860;52.370;6.764;2023-01-08T05:01:18;10.50;84.80
26099;DHT22;13860;52.370;6.764;2023-01-08T05:04:19;10.50;84.90
26099;DHT22;13860;52.370;6.764;2023-01-08T05:07:21;10.50;84.40
26099;DHT22;13860;52.370;6.764;2023-01-08T05:10:22;10.40;84.90
26099;DHT22;13860;52.370;6.764;2023-01-08T05:13:23;10.40;85.00
26099;DHT22;13860;52.370;6.764;2023-01-08T05:16:25;10.40;85.00
26099;DHT22;13860;52.370;6.764;2023-01-08T05:19:26;10.40;84.90
26099;DHT22;13860;52.370;6.764;2023-01-08T05:22:28;10.30;84.80
26099;DHT22;13860;52.370;6.764;2023-01-08T05:25:29;10.30;84.80
26099;DHT22;13860;52.370;6.764;2023-01-08T05:28:31;10.30;84.90
26099;DHT22;13860;52.370;6.764;2023-01-08T05:31:33;10.20;84.90
26099;DHT22;13860;52.370;6.764;2023-01-08T05:34:34;10.20;85.00
26099;DHT22;13860;52.370;6.764;2023-01-08T05:37:36;10.10;85.00
26099;DHT22;13860;52.370;6.764;2023-01-08T05:40:38;10.20;85.10
26099;DHT22;13860;52.370;6.764;2023-01-08T05:43:39;10.10;85.10
26099;DHT22;13860;52.370;6.764;2023-01-08T05:46:41;10.10;85.10
26099;DHT22;13860;52.370;6.764;2023-01-08T05:49:42;10.10;85.20
26099;DHT22;13860;52.370;6.764;2023-01-08T05:52:44;10.10;85.20
26099;DHT22;13860;52.370;6.764;2023-01-08T05:55:45;10.00;85.10
26099;DHT22;13860;52.370;6.764;2023-01-08T05:58:46;10.00;85.20
26099;DHT22;13860;52.370;6.764;2023-01-08T06:01:48;10.00;85.20
26099;DHT22;13860;52.370;6.764;2023-01-08T06:04:49;9.90;85.20
26099;DHT22;13860;52.370;6.764;2023-01-08T06:07:50;9.90;85.20
26099;DHT22;13860;52.370;6.764;2023-01-08T06:10:52;9.90;85.20
26099;DHT22;13860;52.370;6.764;2023-01-08T06:13:53;9.90;85.90
26099;DHT22;13860;52.370;6.764;2023-01-08T06:16:55;9.90;85.30
26099;DHT22;13860;52.370;6.764;2023-01-08T06:19:56;9.90;85.30
26099;DHT22;13860;52.370;6.764;2023-01-08T06:22:57;9.90;85.40
26099;DHT22;13860;52.370;6.764;2023-01-08T06:26:00;9.90;85.40
26099;DHT22;13860;52.370;6.764;2023-01-08T06:29:01;9.80;85.40
26099;DHT22;13860;52.370;6.764;2023-01-08T06:32:03;9.90;85.50
26099;DHT22;13860;52.370;6.764;2023-01-08T06:35:04;9.80;85.40
26099;DHT22;13860;52.370;6.764;2023-01-08T06:38:06;9.80;85.40
26099;DHT22;13860;52.370;6.764;2023-01-08T06:41:09;9.80;85.40
26099;DHT22;13860;52.370;6.764;2023-01-08T06:44:10;9.80;85.50
26099;DHT22;13860;52.370;6.764;2023-01-08T06:47:12;9.80;85.50
26099;DHT22;13860;52.370;6.764;2023-01-08T06:50:13;9.80;85.50
26099;DHT22;13860;52.370;6.764;2023-01-08T06:53:14;9.80;85.60
26099;DHT22;13860;52.370;6.764;2023-01-08T06:56:16;9.70;85.50
26099;DHT22;13860;52.370;6.764;2023-01-08T06:59:17;9.70;85.50
26099;DHT22;13860;52.370;6.764;2023-01-08T07:02:19;9.70;86.20
26099;DHT22;13860;52.370;6.764;2023-01-08T07:05:21;9.70;85.60
26099;DHT22;13860;52.370;6.764;2023-01-08T07:08:23;9.70;85.60
26099;DHT22;13860;52.370;6.764;2023-01-08T07:11:24;9.70;85.70
26099;DHT22;13860;52.370;6.764;2023-01-08T07:14:26;9.70;85.70
26099;DHT22;13860;52.370;6.764;2023-01-08T07:17:27;9.70;85.70
26099;DHT22;13860;52.370;6.764;2023-01-08T07:20:29;9.70;85.70
26099;DHT22;13860;52.370;6.764;2023-01-08T07:23:30;9.70;85.80
26099;DHT22;13860;52.370;6.764;2023-01-08T07:26:32;9.70;85.70
26099;DHT22;13860;52.370;6.764;2023-01-08T07:29:34;9.70;85.80
26099;DHT22;13860;52.370;6.764;2023-01-08T07:32:35;9.70;85.80
26099;DHT22;13860;52.370;6.764;2023-01-08T07:35:37;9.60;85.70
26099;DHT22;13860;52.370;6.764;2023-01-08T07:38:39;9.70;85.70
26099;DHT22;13860;52.370;6.764;2023-01-08T07:41:40;9.70;85.70
26099;DHT22;13860;52.370;6.764;2023-01-08T07:44:42;9.60;85.60
26099;DHT22;13860;52.370;6.764;2023-01-08T07:47:43;9.60;85.60
26099;DHT22;13860;52.370;6.764;2023-01-08T07:50:45;9.60;85.60
26099;DHT22;13860;52.370;6.764;2023-01-08T07:53:46;9.60;85.70
26099;DHT22;13860;52.370;6.764;2023-01-08T07:56:47;9.60;85.60
26099;DHT22;13860;52.370;6.764;2023-01-08T07:59:49;9.60;85.60
26099;DHT22;13860;52.370;6.764;2023-01-08T08:02:50;9.60;85.60
26099;DHT22;13860;52.370;6.764;2023-01-08T08:05:52;9.60;85.60
26099;DHT22;13860;52.370;6.764;2023-01-08T08:08:55;9.50;85.50
26099;DHT22;13860;52.370;6.764;2023-01-08T08:11:56;9.50;85.50
26099;DHT22;13860;52.370;6.764;2023-01-08T08:14:58;9.50;85.50
26099;DHT22;13860;52.370;6.764;2023-01-08T08:18:00;9.50;85.50
26099;DHT22;13860;52.370;6.764;2023-01-08T08:21:01;9.50;85.60
26099;DHT22;13860;52.370;6.764;2023-01-08T08:24:04;9.40;85.50
26099;DHT22;13860;52.370;6.764;2023-01-08T08:27:05;9.40;85.50
26099;DHT22;13860;52.370;6.764;2023-01-08T08:30:07;9.40;85.50
26099;DHT22;13860;52.370;6.764;2023-01-08T08:33:09;9.30;85.50
26099;DHT22;13860;52.370;6.764;2023-01-08T08:36:11;9.30;85.50
26099;DHT22;13860;52.370;6.764;2023-01-08T08:39:12;9.30;85.50
26099;DHT22;13860;52.370;6.764;2023-01-08T08:42:14;9.30;85.50
26099;DHT22;13860;52.370;6.764;2023-01-08T08:45:15;9.20;85.50
26099;DHT22;13860;52.370;6.764;2023-01-08T08:48:16;9.20;85.50
26099;DHT22;13860;52.370;6.764;2023-01-08T08:51:18;9.20;85.50
26099;DHT22;13860;52.370;6.764;2023-01-08T08:54:19;9.20;85.50
26099;DHT22;13860;52.370;6.764;2023-01-08T08:57:23;9.20;85.50
26099;DHT22;13860;52.370;6.764;2023-01-08T09:00:24;9.20;85.50
26099;DHT22;13860;52.370;6.764;2023-01-08T09:03:26;9.10;85.40
26099;DHT22;13860;52.370;6.764;2023-01-08T09:06:27;9.10;85.50
26099;DHT22;13860;52.370;6.764;2023-01-08T09:09:28;9.10;85.40
26099;DHT22;13860;52.370;6.764;2023-01-08T09:12:30;9.10;85.40
26099;DHT22;13860;52.370;6.764;2023-01-08T09:15:31;9.10;85.40
26099;DHT22;13860;52.370;6.764;2023-01-08T09:18:33;9.00;85.30
26099;DHT22;13860;52.370;6.764;2023-01-08T09:21:35;9.00;85.30
26099;DHT22;13860;52.370;6.764;2023-01-08T09:24:36;9.00;85.30
26099;DHT22;13860;52.370;6.764;2023-01-08T09:27:38;9.00;85.30
26099;DHT22;13860;52.370;6.764;2023-01-08T09:30:39;9.00;85.30
26099;DHT22;13860;52.370;6.764;2023-01-08T09:33:40;9.00;85.30
26099;DHT22;13860;52.370;6.764;2023-01-08T09:36:42;9.00;85.40
26099;DHT22;13860;52.370;6.764;2023-01-08T09:39:43;9.00;85.30
26099;DHT22;13860;52.370;6.764;2023-01-08T09:42:57;9.00;85.30
26099;DHT22;13860;52.370;6.764;2023-01-08T09:46:03;9.00;85.30
26099;DHT22;13860;52.370;6.764;2023-01-08T09:49:06;9.00;85.30
26099;DHT22;13860;52.370;6.764;2023-01-08T09:52:12;9.00;85.20
26099;DHT22;13860;52.370;6.764;2023-01-08T09:55:15;9.00;85.30
26099;DHT22;13860;52.370;6.764;2023-01-08T09:58:48;9.00;85.30
26099;DHT22;13860;52.370;6.764;2023-01-08T10:01:51;9.00;85.20
26099;DHT22;13860;52.370;6.764;2023-01-08T10:04:57;9.10;85.30
26099;DHT22;13860;52.370;6.764;2023-01-08T10:08:00;9.10;85.30
26099;DHT22;13860;52.370;6.764;2023-01-08T10:11:02;9.10;85.20
26099;DHT22;13860;52.370;6.764;2023-01-08T10:14:13;9.10;85.20
26099;DHT22;13860;52.370;6.764;2023-01-08T10:17:37;9.10;85.30
26099;DHT22;13860;52.370;6.764;2023-01-08T10:20:38;9.20;85.30
26099;DHT22;13860;52.370;6.764;2023-01-08T10:23:50;9.30;85.30
26099;DHT22;13860;52.370;6.764;2023-01-08T10:26:52;9.30;85.20
26099;DHT22;13860;52.370;6.764;2023-01-08T10:30:04;9.40;85.30
26099;DHT22;13860;52.370;6.764;2023-01-08T10:33:11;9.40;85.30
26099;DHT22;13860;52.370;6.764;2023-01-08T10:36:22;9.50;85.20
26099;DHT22;13860;52.370;6.764;2023-01-08T10:39:28;9.50;85.10
26099;DHT22;13860;52.370;6.764;2023-01-08T10:42:33;9.60;85.10
26099;DHT22;13860;52.370;6.764;2023-01-08T10:45:34;9.70;85.00
26099;DHT22;13860;52.370;6.764;2023-01-08T10:48:39;9.70;84.90
26099;DHT22;13860;52.370;6.764;2023-01-08T10:51:50;9.70;84.80
26099;DHT22;13860;52.370;6.764;2023-01-08T10:54:52;9.70;84.80
26099;DHT22;13860;52.370;6.764;2023-01-08T10:58:02;9.70;84.80
26099;DHT22;13860;52.370;6.764;2023-01-08T11:01:15;9.70;84.70
26099;DHT22;13860;52.370;6.764;2023-01-08T11:04:26;9.70;84.70
26099;DHT22;13860;52.370;6.764;2023-01-08T11:07:29;9.70;84.70
26099;DHT22;13860;52.370;6.764;2023-01-08T11:10:33;9.70;84.70
26099;DHT22;13860;52.370;6.764;2023-01-08T11:13:37;9.70;84.70
26099;DHT22;13860;52.370;6.764;2023-01-08T11:16:40;9.80;84.80
26099;DHT22;13860;52.370;6.764;2023-01-08T11:19:42;9.80;84.80
26099;DHT22;13860;52.370;6.764;2023-01-08T11:22:43;9.80;84.80
26099;DHT22;13860;52.370;6.764;2023-01-08T11:29:07;9.80;84.80
26099;DHT22;13860;52.370;6.764;2023-01-08T11:35:51;9.80;84.80
26099;DHT22;13860;52.370;6.764;2023-01-08T11:38:54;9.80;84.80
26099;DHT22;13860;52.370;6.764;2023-01-08T11:48:55;9.90;84.80
26099;DHT22;13860;52.370;6.764;2023-01-08T11:52:18;9.90;84.80
26099;DHT22;13860;52.370;6.764;2023-01-08T11:55:31;9.90;84.80
26099;DHT22;13860;52.370;6.764;2023-01-08T11:58:44;9.90;84.80
26099;DHT22;13860;52.370;6.764;2023-01-08T12:05:31;9.90;84.80
26099;DHT22;13860;52.370;6.764;2023-01-08T12:12:01;10.00;84.80
26099;DHT22;13860;52.370;6.764;2023-01-08T12:15:19;10.00;84.80
26099;DHT22;13860;52.370;6.764;2023-01-08T12:22:10;10.10;84.90
26099;DHT22;13860;52.370;6.764;2023-01-08T12:35:13;10.30;84.90
26099;DHT22;13860;52.370;6.764;2023-01-08T12:38:27;10.30;84.90
26099;DHT22;13860;52.370;6.764;2023-01-08T12:41:33;10.30;84.80
26099;DHT22;13860;52.370;6.764;2023-01-08T12:44:35;10.40;84.80
26099;DHT22;13860;52.370;6.764;2023-01-08T12:47:38;10.40;84.70
26099;DHT22;13860;52.370;6.764;2023-01-08T12:50:51;10.40;84.70
26099;DHT22;13860;52.370;6.764;2023-01-08T12:54:05;10.50;84.70
26099;DHT22;13860;52.370;6.764;2023-01-08T12:57:15;10.50;84.60
26099;DHT22;13860;52.370;6.764;2023-01-08T13:00:26;10.50;84.60
26099;DHT22;13860;52.370;6.764;2023-01-08T13:03:31;10.50;84.60
26099;DHT22;13860;52.370;6.764;2023-01-08T13:06:34;10.50;84.50
26099;DHT22;13860;52.370;6.764;2023-01-08T13:09:35;10.50;84.50
26099;DHT22;13860;52.370;6.764;2023-01-08T13:12:39;10.50;84.50
26099;DHT22;13860;52.370;6.764;2023-01-08T13:15:41;10.60;84.50
26099;DHT22;13860;52.370;6.764;2023-01-08T13:18:59;10.60;84.50
26099;DHT22;13860;52.370;6.764;2023-01-08T13:22:01;10.60;84.40
26099;DHT22;13860;52.370;6.764;2023-01-08T13:25:10;10.70;84.40
26099;DHT22;13860;52.370;6.764;2023-01-08T13:31:38;10.70;84.30
26099;DHT22;13860;52.370;6.764;2023-01-08T13:34:41;10.70;84.30
26099;DHT22;13860;52.370;6.764;2023-01-08T13:37:45;10.70;84.30
26099;DHT22;13860;52.370;6.764;2023-01-08T13:44:15;10.70;84.20
26099;DHT22;13860;52.370;6.764;2023-01-08T13:47:27;10.70;84.20
26099;DHT22;13860;52.370;6.764;2023-01-08T13:50:30;10.70;84.20
26099;DHT22;13860;52.370;6.764;2023-01-08T13:53:33;10.70;84.20
26099;DHT22;13860;52.370;6.764;2023-01-08T13:56:34;10.70;84.20
26099;DHT22;13860;52.370;6.764;2023-01-08T13:59:47;10.70;84.20
26099;DHT22;13860;52.370;6.764;2023-01-08T14:02:50;10.70;84.20
26099;DHT22;13860;52.370;6.764;2023-01-08T14:06:04;10.60;84.20
26099;DHT22;13860;52.370;6.764;2023-01-08T14:09:05;10.60;84.20
26099;DHT22;13860;52.370;6.764;2023-01-08T14:12:11;10.60;84.20
26099;DHT22;13860;52.370;6.764;2023-01-08T14:15:27;10.60;84.20
26099;DHT22;13860;52.370;6.764;2023-01-08T14:18:29;10.60;84.10
26099;DHT22;13860;52.370;6.764;2023-01-08T14:21:31;10.60;84.10
26099;DHT22;13860;52.370;6.764;2023-01-08T14:24:32;10.60;84.20
26099;DHT22;13860;52.370;6.764;2023-01-08T14:27:34;10.60;84.20
26099;DHT22;13860;52.370;6.764;2023-01-08T14:30:35;10.60;84.10
26099;DHT22;13860;52.370;6.764;2023-01-08T14:33:38;10.60;84.10
26099;DHT22;13860;52.370;6.764;2023-01-08T14:36:42;10.60;84.10
26099;DHT22;13860;52.370;6.764;2023-01-08T14:39:45;10.60;84.10
26099;DHT22;13860;52.370;6.764;2023-01-08T14:42:49;10.60;84.00
26099;DHT22;13860;52.370;6.764;2023-01-08T14:45:53;10.50;83.90
26099;DHT22;13860;52.370;6.764;2023-01-08T14:48:56;10.60;84.00
26099;DHT22;13860;52.370;6.764;2023-01-08T14:51:59;10.60;83.90
26099;DHT22;13860;52.370;6.764;2023-01-08T14:55:02;10.50;83.80
26099;DHT22;13860;52.370;6.764;2023-01-08T14:58:12;10.50;83.90
26099;DHT22;13860;52.370;6.764;2023-01-08T15:01:18;10.50;83.70
26099;DHT22;13860;52.370;6.764;2023-01-08T15:04:21;10.50;83.70
26099;DHT22;13860;52.370;6.764;2023-01-08T15:07:25;10.50;83.70
26099;DHT22;13860;52.370;6.764;2023-01-08T15:10:40;10.40;83.50
26099;DHT22;13860;52.370;6.764;2023-01-08T15:13:42;10.40;83.40
26099;DHT22;13860;52.370;6.764;2023-01-08T15:16:43;10.40;83.40
26099;DHT22;13860;52.370;6.764;2023-01-08T15:19:51;10.40;83.40
26099;DHT22;13860;52.370;6.764;2023-01-08T15:22:53;10.40;83.40
26099;DHT22;13860;52.370;6.764;2023-01-08T15:25:55;10.30;84.00
26099;DHT22;13860;52.370;6.764;2023-01-08T15:29:04;10.30;83.30
26099;DHT22;13860;52.370;6.764;2023-01-08T15:35:17;10.30;83.40
26099;DHT22;13860;52.370;6.764;2023-01-08T15:38:19;10.20;83.30
26099;DHT22;13860;52.370;6.764;2023-01-08T15:41:24;10.20;83.30
26099;DHT22;13860;52.370;6.764;2023-01-08T15:44:45;10.20;83.30
26099;DHT22;13860;52.370;6.764;2023-01-08T15:47:46;10.10;83.20
26099;DHT22;13860;52.370;6.764;2023-01-08T15:50:48;10.10;83.30
26099;DHT22;13860;52.370;6.764;2023-01-08T15:53:49;10.00;83.20
26099;DHT22;13860;52.370;6.764;2023-01-08T15:56:51;10.00;83.30
26099;DHT22;13860;52.370;6.764;2023-01-08T15:59:52;10.00;83.20
26099;DHT22;13860;52.370;6.764;2023-01-08T16:02:54;10.00;83.30
26099;DHT22;13860;52.370;6.764;2023-01-08T16:05:56;9.90;83.20
26099;DHT22;13860;52.370;6.764;2023-01-08T16:08:57;9.90;83.30
26099;DHT22;13860;52.370;6.764;2023-01-08T16:12:00;9.90;83.20
26099;DHT22;13860;52.370;6.764;2023-01-08T16:15:02;9.80;83.20
26099;DHT22;13860;52.370;6.764;2023-01-08T16:18:04;9.80;83.20
26099;DHT22;13860;52.370;6.764;2023-01-08T16:21:07;9.80;83.20
26099;DHT22;13860;52.370;6.764;2023-01-08T16:24:11;9.70;83.10
26099;DHT22;13860;52.370;6.764;2023-01-08T16:27:13;9.70;83.20
26099;DHT22;13860;52.370;6.764;2023-01-08T16:30:14;9.70;83.20
26099;DHT22;13860;52.370;6.764;2023-01-08T16:33:16;9.70;83.30
26099;DHT22;13860;52.370;6.764;2023-01-08T16:36:17;9.60;83.20
26099;DHT22;13860;52.370;6.764;2023-01-08T16:39:19;9.60;83.20
26099;DHT22;13860;52.370;6.764;2023-01-08T16:42:20;9.60;83.10
26099;DHT22;13860;52.370;6.764;2023-01-08T16:45:22;9.50;83.10
26099;DHT22;13860;52.370;6.764;2023-01-08T16:48:23;9.50;83.10
26099;DHT22;13860;52.370;6.764;2023-01-08T16:51:24;9.40;83.10
26099;DHT22;13860;52.370;6.764;2023-01-08T16:54:27;9.40;83.10
26099;DHT22;13860;52.370;6.764;2023-01-08T16:57:29;9.40;83.20
26099;DHT22;13860;52.370;6.764;2023-01-08T17:00:37;9.40;83.20
26099;DHT22;13860;52.370;6.764;2023-01-08T17:03:39;9.30;83.10
26099;DHT22;13860;52.370;6.764;2023-01-08T17:06:40;9.30;83.10
26099;DHT22;13860;52.370;6.764;2023-01-08T17:09:42;9.30;83.10
26099;DHT22;13860;52.370;6.764;2023-01-08T17:12:43;9.20;83.00
26099;DHT22;13860;52.370;6.764;2023-01-08T17:15:44;9.20;83.10
26099;DHT22;13860;52.370;6.764;2023-01-08T17:18:47;9.10;83.00
26099;DHT22;13860;52.370;6.764;2023-01-08T17:21:49;9.10;83.10
26099;DHT22;13860;52.370;6.764;2023-01-08T17:24:50;9.10;83.10
26099;DHT22;13860;52.370;6.764;2023-01-08T17:27:52;9.00;83.10
26099;DHT22;13860;52.370;6.764;2023-01-08T17:31:21;9.00;83.10
26099;DHT22;13860;52.370;6.764;2023-01-08T17:34:22;9.00;83.10
26099;DHT22;13860;52.370;6.764;2023-01-08T17:37:24;8.90;83.10
26099;DHT22;13860;52.370;6.764;2023-01-08T17:40:25;8.90;83.10
26099;DHT22;13860;52.370;6.764;2023-01-08T17:43:27;8.80;83.10
26099;DHT22;13860;52.370;6.764;2023-01-08T17:46:28;8.80;83.10
26099;DHT22;13860;52.370;6.764;2023-01-08T17:49:29;8.80;83.20
26099;DHT22;13860;52.370;6.764;2023-01-08T17:52:31;8.70;83.20
26099;DHT22;13860;52.370;6.764;2023-01-08T17:55:33;8.70;83.20
26099;DHT22;13860;52.370;6.764;2023-01-08T17:58:34;8.70;83.20
26099;DHT22;13860;52.370;6.764;2023-01-08T18:01:36;8.60;83.10
26099;DHT22;13860;52.370;6.764;2023-01-08T18:04:41;8.60;83.20
26099;DHT22;13860;52.370;6.764;2023-01-08T18:07:42;8.60;83.80
26099;DHT22;13860;52.370;6.764;2023-01-08T18:10:46;8.60;83.20
26099;DHT22;13860;52.370;6.764;2023-01-08T18:13:54;8.50;83.20
26099;DHT22;13860;52.370;6.764;2023-01-08T18:16:55;8.50;83.20
26099;DHT22;13860;52.370;6.764;2023-01-08T18:19:57;8.50;83.20
26099;DHT22;13860;52.370;6.764;2023-01-08T18:22:58;8.50;83.20
26099;DHT22;13860;52.370;6.764;2023-01-08T18:26:05;8.40;83.20
26099;DHT22;13860;52.370;6.764;2023-01-08T18:29:07;8.40;83.20
26099;DHT22;13860;52.370;6.764;2023-01-08T18:32:09;8.40;83.20
26099;DHT22;13860;52.370;6.764;2023-01-08T18:35:10;8.40;83.20
26099;DHT22;13860;52.370;6.764;2023-01-08T18:38:12;8.40;83.20
26099;DHT22;13860;52.370;6.764;2023-01-08T18:41:18;8.40;83.30
26099;DHT22;13860;52.370;6.764;2023-01-08T18:44:39;8.40;83.30
26099;DHT22;13860;52.370;6.764;2023-01-08T18:47:41;8.40;83.30
26099;DHT22;13860;52.370;6.764;2023-01-08T18:50:42;8.40;83.30
26099;DHT22;13860;52.370;6.764;2023-01-08T18:53:44;8.40;83.30
26099;DHT22;13860;52.370;6.764;2023-01-08T18:56:45;8.40;83.30
26099;DHT22;13860;52.370;6.764;2023-01-08T18:59:47;8.40;83.30
26099;DHT22;13860;52.370;6.764;2023-01-08T19:02:49;8.30;83.30
26099;DHT22;13860;52.370;6.764;2023-01-08T19:05:52;8.30;83.30
26099;DHT22;13860;52.370;6.764;2023-01-08T19:08:56;8.30;83.30
26099;DHT22;13860;52.370;6.764;2023-01-08T19:11:58;8.30;83.30
26099;DHT22;13860;52.370;6.764;2023-01-08T19:15:03;8.30;83.40
26099;DHT22;13860;52.370;6.764;2023-01-08T19:18:04;8.30;83.40
26099;DHT22;13860;52.370;6.764;2023-01-08T19:21:08;8.30;83.30
26099;DHT22;13860;52.370;6.764;2023-01-08T19:24:10;8.30;83.40
26099;DHT22;13860;52.370;6.764;2023-01-08T19:27:14;8.30;83.30
26099;DHT22;13860;52.370;6.764;2023-01-08T19:30:16;8.30;83.40
26099;DHT22;13860;52.370;6.764;2023-01-08T19:33:17;8.30;83.40
26099;DHT22;13860;52.370;6.764;2023-01-08T19:36:19;8.30;83.40
26099;DHT22;13860;52.370;6.764;2023-01-08T19:39:21;8.30;83.40
26099;DHT22;13860;52.370;6.764;2023-01-08T19:42:22;8.30;83.40
26099;DHT22;13860;52.370;6.764;2023-01-08T19:45:42;8.30;83.40
26099;DHT22;13860;52.370;6.764;2023-01-08T19:48:44;8.30;83.50
26099;DHT22;13860;52.370;6.764;2023-01-08T19:51:45;8.30;83.40
26099;DHT22;13860;52.370;6.764;2023-01-08T19:54:47;8.30;83.40
26099;DHT22;13860;52.370;6.764;2023-01-08T19:57:49;8.30;83.40
26099;DHT22;13860;52.370;6.764;2023-01-08T20:00:50;8.30;83.40
26099;DHT22;13860;52.370;6.764;2023-01-08T20:03:52;8.30;83.40
26099;DHT22;13860;52.370;6.764;2023-01-08T20:06:55;8.30;83.50
26099;DHT22;13860;52.370;6.764;2023-01-08T20:09:58;8.30;83.40
26099;DHT22;13860;52.370;6.764;2023-01-08T20:12:59;8.30;83.40
26099;DHT22;13860;52.370;6.764;2023-01-08T20:16:05;8.30;83.40
26099;DHT22;13860;52.370;6.764;2023-01-08T20:19:08;8.40;83.40
26099;DHT22;13860;52.370;6.764;2023-01-08T20:22:10;8.40;83.40
26099;DHT22;13860;52.370;6.764;2023-01-08T20:25:11;8.40;83.40